sensor_id;sensor_type;location;lat;lon;timestamp;P1;durP1;ratioP1;P2;durP2;ratioP2
64075;SDS011;50327;51.328;12.324;2023-09-19T00:01:31;5.50;;;1.97;;
64075;SDS011;50327;51.328;12.324;2023-09-19T00:03:57;5.38;;;1.83;;
64075;SDS011;50327;51.328;12.324;2023-09-19T00:06:23;5.32;;;1.95;;
64075;SDS011;50327;51.328;12.324;2023-09-19T00:08:51;3.93;;;1.77;;
64075;SDS011;50327;51.328;12.324;2023-09-19T00:11:16;3.00;;;1.73;;
64075;SDS011;50327;51.328;12.324;2023-09-19T00:13:41;5.10;;;1.75;;
64075;SDS011;50327;51.328;12.324;2023-09-19T00:16:08;4.25;;;2.30;;
64075;SDS011;50327;51.328;12.324;2023-09-19T00:18:35;5.80;;;1.83;;
64075;SDS011;50327;51.328;12.324;2023-09-19T00:21:01;4.53;;;1.92;;
64075;SDS011;50327;51.328;12.324;2023-09-19T00:23:26;7.60;;;1.90;;
64075;SDS011;50327;51.328;12.324;2023-09-19T00:25:53;7.97;;;2.17;;
64075;SDS011;50327;51.328;12.324;2023-09-19T00:28:22;4.68;;;2.05;;
64075;SDS011;50327;51.328;12.324;2023-09-19T00:30:47;5.30;;;2.05;;
64075;SDS011;50327;51.328;12.324;2023-09-19T00:33:15;6.88;;;2.28;;
64075;SDS011;50327;51.328;12.324;2023-09-19T00:35:47;7.82;;;2.00;;
64075;SDS011;50327;51.328;12.324;2023-09-19T00:38:12;6.35;;;2.20;;
64075;SDS011;50327;51.328;12.324;2023-09-19T00:43:06;6.47;;;2.00;;
64075;SDS011;50327;51.328;12.324;2023-09-19T00:45:33;7.80;;;2.22;;
64075;SDS011;50327;51.328;12.324;2023-09-19T00:47:59;5.13;;;2.03;;
64075;SDS011;50327;51.328;12.324;2023-09-19T00:50:28;6.43;;;1.80;;
64075;SDS011;50327;51.328;12.324;2023-09-19T00:52:54;7.43;;;2.10;;
64075;SDS011;50327;51.328;12.324;2023-09-19T00:55:23;8.23;;;2.25;;
64075;SDS011;50327;51.328;12.324;2023-09-19T00:57:49;7.10;;;2.30;;
64075;SDS011;50327;51.328;12.324;2023-09-19T01:00:15;7.57;;;1.75;;
64075;SDS011;50327;51.328;12.324;2023-09-19T01:02:41;3.40;;;1.88;;
64075;SDS011;50327;51.328;12.324;2023-09-19T01:05:07;4.60;;;2.00;;
64075;SDS011;50327;51.328;12.324;2023-09-19T01:07:33;5.80;;;1.98;;
64075;SDS011;50327;51.328;12.324;2023-09-19T01:10:04;6.70;;;2.72;;
64075;SDS011;50327;51.328;12.324;2023-09-19T01:15:24;8.32;;;2.38;;
64075;SDS011;50327;51.328;12.324;2023-09-19T01:30:47;8.65;;;2.35;;
64075;SDS011;50327;51.328;12.324;2023-09-19T01:33:16;4.30;;;2.22;;
64075;SDS011;50327;51.328;12.324;2023-09-19T01:35:42;4.55;;;2.25;;
64075;SDS011;50327;51.328;12.324;2023-09-19T01:38:07;5.85;;;2.25;;
64075;SDS011;50327;51.328;12.324;2023-09-19T01:40:39;12.57;;;2.35;;
64075;SDS011;50327;51.328;12.324;2023-09-19T01:47:56;8.43;;;2.00;;
64075;SDS011;50327;51.328;12.324;2023-09-19T01:53:07;4.93;;;2.05;;
64075;SDS011;50327;51.328;12.324;2023-09-19T01:55:36;4.18;;;1.52;;
64075;SDS011;50327;51.328;12.324;2023-09-19T02:00:42;3.45;;;1.70;;
64075;SDS011;50327;51.328;12.324;2023-09-19T02:03:10;6.53;;;1.80;;
64075;SDS011;50327;51.328;12.324;2023-09-19T02:05:36;5.63;;;1.70;;
64075;SDS011;50327;51.328;12.324;2023-09-19T02:08:02;4.50;;;1.50;;
64075;SDS011;50327;51.328;12.324;2023-09-19T02:10:27;5.20;;;1.58;;
64075;SDS011;50327;51.328;12.324;2023-09-19T02:12:53;2.30;;;1.25;;
64075;SDS011;50327;51.328;12.324;2023-09-19T02:15:18;6.93;;;1.50;;
64075;SDS011;50327;51.328;12.324;2023-09-19T02:17:43;7.97;;;1.48;;
64075;SDS011;50327;51.328;12.324;2023-09-19T02:20:11;6.78;;;1.27;;
64075;SDS011;50327;51.328;12.324;2023-09-19T02:25:04;5.78;;;2.03;;
64075;SDS011;50327;51.328;12.324;2023-09-19T02:27:30;3.72;;;1.42;;
64075;SDS011;50327;51.328;12.324;2023-09-19T02:29:55;3.65;;;1.33;;
64075;SDS011;50327;51.328;12.324;2023-09-19T02:32:21;5.13;;;1.40;;
64075;SDS011;50327;51.328;12.324;2023-09-19T02:34:46;7.63;;;1.35;;
64075;SDS011;50327;51.328;12.324;2023-09-19T02:37:11;4.28;;;1.60;;
64075;SDS011;50327;51.328;12.324;2023-09-19T02:39:38;5.07;;;1.60;;
64075;SDS011;50327;51.328;12.324;2023-09-19T02:42:04;3.63;;;1.50;;
64075;SDS011;50327;51.328;12.324;2023-09-19T02:44:30;2.70;;;1.33;;
64075;SDS011;50327;51.328;12.324;2023-09-19T02:46:55;3.53;;;1.60;;
64075;SDS011;50327;51.328;12.324;2023-09-19T02:49:22;5.25;;;1.35;;
64075;SDS011;50327;51.328;12.324;2023-09-19T02:51:47;3.42;;;1.50;;
64075;SDS011;50327;51.328;12.324;2023-09-19T02:54:12;3.97;;;1.60;;
64075;SDS011;50327;51.328;12.324;2023-09-19T02:56:38;3.75;;;1.52;;
64075;SDS011;50327;51.328;12.324;2023-09-19T02:59:04;9.63;;;1.73;;
64075;SDS011;50327;51.328;12.324;2023-09-19T03:01:29;3.42;;;1.27;;
64075;SDS011;50327;51.328;12.324;2023-09-19T03:03:54;3.83;;;1.40;;
64075;SDS011;50327;51.328;12.324;2023-09-19T03:06:20;2.92;;;1.38;;
64075;SDS011;50327;51.328;12.324;2023-09-19T03:08:45;11.57;;;1.50;;
64075;SDS011;50327;51.328;12.324;2023-09-19T03:11:11;3.63;;;1.20;;
64075;SDS011;50327;51.328;12.324;2023-09-19T03:13:38;7.20;;;1.42;;
64075;SDS011;50327;51.328;12.324;2023-09-19T03:16:06;6.05;;;1.67;;
64075;SDS011;50327;51.328;12.324;2023-09-19T03:18:31;5.63;;;1.55;;
64075;SDS011;50327;51.328;12.324;2023-09-19T03:20:57;4.05;;;1.30;;
64075;SDS011;50327;51.328;12.324;2023-09-19T03:23:24;4.55;;;1.60;;
64075;SDS011;50327;51.328;12.324;2023-09-19T03:25:51;3.97;;;1.40;;
64075;SDS011;50327;51.328;12.324;2023-09-19T03:28:17;4.85;;;1.35;;
64075;SDS011;50327;51.328;12.324;2023-09-19T03:30:42;6.60;;;1.30;;
64075;SDS011;50327;51.328;12.324;2023-09-19T03:33:08;3.88;;;1.40;;
64075;SDS011;50327;51.328;12.324;2023-09-19T03:35:35;7.97;;;1.20;;
64075;SDS011;50327;51.328;12.324;2023-09-19T03:38:01;2.30;;;1.10;;
64075;SDS011;50327;51.328;12.324;2023-09-19T03:40:28;3.83;;;1.20;;
64075;SDS011;50327;51.328;12.324;2023-09-19T03:42:53;5.32;;;1.30;;
64075;SDS011;50327;51.328;12.324;2023-09-19T03:45:18;3.67;;;1.20;;
64075;SDS011;50327;51.328;12.324;2023-09-19T03:47:43;3.00;;;1.33;;
64075;SDS011;50327;51.328;12.324;2023-09-19T03:50:12;5.38;;;1.20;;
64075;SDS011;50327;51.328;12.324;2023-09-19T03:52:40;5.45;;;1.40;;
64075;SDS011;50327;51.328;12.324;2023-09-19T03:55:05;3.15;;;1.15;;
64075;SDS011;50327;51.328;12.324;2023-09-19T03:57:31;3.78;;;1.27;;
64075;SDS011;50327;51.328;12.324;2023-09-19T03:59:56;3.85;;;1.30;;
64075;SDS011;50327;51.328;12.324;2023-09-19T04:02:22;2.25;;;1.30;;
64075;SDS011;50327;51.328;12.324;2023-09-19T04:04:51;9.20;;;1.73;;
64075;SDS011;50327;51.328;12.324;2023-09-19T04:09:41;4.23;;;1.43;;
64075;SDS011;50327;51.328;12.324;2023-09-19T04:12:07;4.70;;;1.20;;
64075;SDS011;50327;51.328;12.324;2023-09-19T04:14:33;4.35;;;1.40;;
64075;SDS011;50327;51.328;12.324;2023-09-19T04:16:59;3.53;;;1.70;;
64075;SDS011;50327;51.328;12.324;2023-09-19T04:19:24;4.32;;;1.23;;
64075;SDS011;50327;51.328;12.324;2023-09-19T04:21:50;4.55;;;1.98;;
64075;SDS011;50327;51.328;12.324;2023-09-19T04:24:15;4.40;;;1.30;;
64075;SDS011;50327;51.328;12.324;2023-09-19T04:26:40;3.97;;;1.40;;
64075;SDS011;50327;51.328;12.324;2023-09-19T04:29:07;5.07;;;1.40;;
64075;SDS011;50327;51.328;12.324;2023-09-19T04:31:36;6.75;;;1.60;;
64075;SDS011;50327;51.328;12.324;2023-09-19T04:34:02;5.22;;;1.60;;
64075;SDS011;50327;51.328;12.324;2023-09-19T04:36:28;3.55;;;1.40;;
64075;SDS011;50327;51.328;12.324;2023-09-19T04:38:53;2.67;;;1.20;;
64075;SDS011;50327;51.328;12.324;2023-09-19T04:41:18;3.38;;;1.23;;
64075;SDS011;50327;51.328;12.324;2023-09-19T04:43:44;2.58;;;1.17;;
64075;SDS011;50327;51.328;12.324;2023-09-19T04:46:09;2.78;;;1.30;;
64075;SDS011;50327;51.328;12.324;2023-09-19T04:48:39;3.72;;;1.45;;
64075;SDS011;50327;51.328;12.324;2023-09-19T04:51:05;3.05;;;1.38;;
64075;SDS011;50327;51.328;12.324;2023-09-19T04:53:30;3.65;;;1.30;;
64075;SDS011;50327;51.328;12.324;2023-09-19T04:55:55;4.72;;;1.30;;
64075;SDS011;50327;51.328;12.324;2023-09-19T04:58:21;3.83;;;1.48;;
64075;SDS011;50327;51.328;12.324;2023-09-19T05:00:46;2.75;;;1.42;;
64075;SDS011;50327;51.328;12.324;2023-09-19T05:03:11;4.85;;;1.33;;
64075;SDS011;50327;51.328;12.324;2023-09-19T05:05:37;5.80;;;1.60;;
64075;SDS011;50327;51.328;12.324;2023-09-19T05:08:03;4.03;;;1.20;;
64075;SDS011;50327;51.328;12.324;2023-09-19T05:10:30;3.47;;;1.40;;
64075;SDS011;50327;51.328;12.324;2023-09-19T05:12:55;2.20;;;1.10;;
64075;SDS011;50327;51.328;12.324;2023-09-19T05:15:21;3.50;;;1.23;;
64075;SDS011;50327;51.328;12.324;2023-09-19T05:17:52;2.97;;;1.40;;
64075;SDS011;50327;51.328;12.324;2023-09-19T05:20:19;3.28;;;1.58;;
64075;SDS011;50327;51.328;12.324;2023-09-19T05:23:03;4.95;;;1.90;;
64075;SDS011;50327;51.328;12.324;2023-09-19T05:25:34;5.20;;;1.92;;
64075;SDS011;50327;51.328;12.324;2023-09-19T05:28:03;8.10;;;1.52;;
64075;SDS011;50327;51.328;12.324;2023-09-19T05:30:28;4.82;;;1.35;;
64075;SDS011;50327;51.328;12.324;2023-09-19T05:32:54;13.00;;;1.70;;
64075;SDS011;50327;51.328;12.324;2023-09-19T05:35:20;4.28;;;1.33;;
64075;SDS011;50327;51.328;12.324;2023-09-19T05:37:46;5.93;;;1.63;;
64075;SDS011;50327;51.328;12.324;2023-09-19T05:40:12;4.45;;;1.50;;
64075;SDS011;50327;51.328;12.324;2023-09-19T05:42:39;3.35;;;1.30;;
64075;SDS011;50327;51.328;12.324;2023-09-19T05:45:06;9.07;;;1.83;;
64075;SDS011;50327;51.328;12.324;2023-09-19T05:47:32;5.60;;;1.48;;
64075;SDS011;50327;51.328;12.324;2023-09-19T05:49:57;4.57;;;1.30;;
64075;SDS011;50327;51.328;12.324;2023-09-19T05:52:22;4.35;;;1.40;;
64075;SDS011;50327;51.328;12.324;2023-09-19T05:54:47;4.70;;;1.40;;
64075;SDS011;50327;51.328;12.324;2023-09-19T05:57:14;3.75;;;1.15;;
64075;SDS011;50327;51.328;12.324;2023-09-19T05:59:40;4.97;;;1.60;;
64075;SDS011;50327;51.328;12.324;2023-09-19T06:02:07;3.25;;;1.25;;
64075;SDS011;50327;51.328;12.324;2023-09-19T06:04:34;8.27;;;1.48;;
64075;SDS011;50327;51.328;12.324;2023-09-19T06:07:00;5.88;;;1.35;;
64075;SDS011;50327;51.328;12.324;2023-09-19T06:09:25;6.32;;;1.65;;
64075;SDS011;50327;51.328;12.324;2023-09-19T06:11:53;4.05;;;1.35;;
64075;SDS011;50327;51.328;12.324;2023-09-19T06:14:18;5.97;;;1.48;;
64075;SDS011;50327;51.328;12.324;2023-09-19T06:16:44;8.27;;;1.35;;
64075;SDS011;50327;51.328;12.324;2023-09-19T06:19:09;4.57;;;1.27;;
64075;SDS011;50327;51.328;12.324;2023-09-19T06:21:35;4.47;;;1.10;;
64075;SDS011;50327;51.328;12.324;2023-09-19T06:24:00;5.95;;;1.38;;
64075;SDS011;50327;51.328;12.324;2023-09-19T06:26:26;7.07;;;1.48;;
64075;SDS011;50327;51.328;12.324;2023-09-19T06:28:52;4.15;;;1.45;;
64075;SDS011;50327;51.328;12.324;2023-09-19T06:31:17;5.22;;;1.50;;
64075;SDS011;50327;51.328;12.324;2023-09-19T06:33:43;3.17;;;1.27;;
64075;SDS011;50327;51.328;12.324;2023-09-19T06:36:08;7.65;;;1.25;;
64075;SDS011;50327;51.328;12.324;2023-09-19T06:38:33;5.18;;;1.52;;
64075;SDS011;50327;51.328;12.324;2023-09-19T06:41:01;2.38;;;1.10;;
64075;SDS011;50327;51.328;12.324;2023-09-19T06:45:55;4.93;;;1.35;;
64075;SDS011;50327;51.328;12.324;2023-09-19T06:48:21;7.20;;;1.42;;
64075;SDS011;50327;51.328;12.324;2023-09-19T06:50:46;4.05;;;1.17;;
64075;SDS011;50327;51.328;12.324;2023-09-19T06:53:13;7.80;;;1.40;;
64075;SDS011;50327;51.328;12.324;2023-09-19T06:55:38;3.90;;;1.42;;
64075;SDS011;50327;51.328;12.324;2023-09-19T06:58:03;2.53;;;1.25;;
64075;SDS011;50327;51.328;12.324;2023-09-19T07:00:31;3.42;;;1.20;;
64075;SDS011;50327;51.328;12.324;2023-09-19T07:02:58;3.25;;;1.05;;
64075;SDS011;50327;51.328;12.324;2023-09-19T07:05:26;4.55;;;1.40;;
64075;SDS011;50327;51.328;12.324;2023-09-19T07:07:52;5.18;;;1.10;;
64075;SDS011;50327;51.328;12.324;2023-09-19T07:10:19;2.75;;;1.10;;
64075;SDS011;50327;51.328;12.324;2023-09-19T07:12:45;3.35;;;1.00;;
64075;SDS011;50327;51.328;12.324;2023-09-19T07:15:10;11.50;;;1.95;;
64075;SDS011;50327;51.328;12.324;2023-09-19T07:17:35;6.05;;;1.73;;
64075;SDS011;50327;51.328;12.324;2023-09-19T07:20:02;7.00;;;1.30;;
64075;SDS011;50327;51.328;12.324;2023-09-19T07:22:32;3.85;;;1.17;;
64075;SDS011;50327;51.328;12.324;2023-09-19T07:24:57;7.28;;;1.50;;
64075;SDS011;50327;51.328;12.324;2023-09-19T07:27:23;3.13;;;1.17;;
64075;SDS011;50327;51.328;12.324;2023-09-19T07:29:48;3.85;;;1.27;;
64075;SDS011;50327;51.328;12.324;2023-09-19T07:32:13;7.13;;;1.90;;
64075;SDS011;50327;51.328;12.324;2023-09-19T07:34:39;9.32;;;1.30;;
64075;SDS011;50327;51.328;12.324;2023-09-19T07:37:05;7.18;;;1.42;;
64075;SDS011;50327;51.328;12.324;2023-09-19T07:39:31;6.05;;;1.35;;
64075;SDS011;50327;51.328;12.324;2023-09-19T07:41:56;6.20;;;1.42;;
64075;SDS011;50327;51.328;12.324;2023-09-19T07:44:22;3.47;;;1.15;;
64075;SDS011;50327;51.328;12.324;2023-09-19T07:46:47;5.78;;;1.52;;
64075;SDS011;50327;51.328;12.324;2023-09-19T07:49:15;4.50;;;1.20;;
64075;SDS011;50327;51.328;12.324;2023-09-19T07:51:42;3.88;;;1.10;;
64075;SDS011;50327;51.328;12.324;2023-09-19T07:56:36;6.90;;;1.50;;
64075;SDS011;50327;51.328;12.324;2023-09-19T07:59:02;4.93;;;1.48;;
64075;SDS011;50327;51.328;12.324;2023-09-19T08:01:27;6.43;;;1.67;;
64075;SDS011;50327;51.328;12.324;2023-09-19T08:03:53;4.32;;;1.10;;
64075;SDS011;50327;51.328;12.324;2023-09-19T08:06:18;6.75;;;1.58;;
64075;SDS011;50327;51.328;12.324;2023-09-19T08:08:45;4.75;;;1.40;;
64075;SDS011;50327;51.328;12.324;2023-09-19T08:11:10;4.15;;;1.25;;
64075;SDS011;50327;51.328;12.324;2023-09-19T08:13:40;7.32;;;1.23;;
64075;SDS011;50327;51.328;12.324;2023-09-19T08:16:14;5.13;;;1.55;;
64075;SDS011;50327;51.328;12.324;2023-09-19T08:18:40;5.63;;;1.27;;
64075;SDS011;50327;51.328;12.324;2023-09-19T08:21:05;6.07;;;1.38;;
64075;SDS011;50327;51.328;12.324;2023-09-19T08:23:35;7.55;;;1.65;;
64075;SDS011;50327;51.328;12.324;2023-09-19T08:26:01;3.65;;;1.27;;
64075;SDS011;50327;51.328;12.324;2023-09-19T08:28:31;3.38;;;1.15;;
64075;SDS011;50327;51.328;12.324;2023-09-19T08:31:00;4.85;;;1.48;;
64075;SDS011;50327;51.328;12.324;2023-09-19T08:33:26;3.13;;;1.20;;
64075;SDS011;50327;51.328;12.324;2023-09-19T08:35:51;7.38;;;1.35;;
64075;SDS011;50327;51.328;12.324;2023-09-19T08:38:16;5.50;;;1.50;;
64075;SDS011;50327;51.328;12.324;2023-09-19T08:40:42;3.78;;;1.20;;
64075;SDS011;50327;51.328;12.324;2023-09-19T08:43:08;8.73;;;1.58;;
64075;SDS011;50327;51.328;12.324;2023-09-19T08:45:34;3.90;;;2.00;;
64075;SDS011;50327;51.328;12.324;2023-09-19T08:48:07;4.93;;;1.13;;
64075;SDS011;50327;51.328;12.324;2023-09-19T08:53:05;7.80;;;1.73;;
64075;SDS011;50327;51.328;12.324;2023-09-19T08:55:34;2.88;;;1.13;;
64075;SDS011;50327;51.328;12.324;2023-09-19T08:58:00;3.58;;;1.33;;
64075;SDS011;50327;51.328;12.324;2023-09-19T09:00:27;5.82;;;1.20;;
64075;SDS011;50327;51.328;12.324;2023-09-19T09:02:52;3.17;;;1.10;;
64075;SDS011;50327;51.328;12.324;2023-09-19T09:05:19;3.90;;;1.00;;
64075;SDS011;50327;51.328;12.324;2023-09-19T09:07:48;7.93;;;1.20;;
64075;SDS011;50327;51.328;12.324;2023-09-19T09:10:15;4.25;;;1.13;;
64075;SDS011;50327;51.328;12.324;2023-09-19T09:12:41;6.75;;;1.35;;
64075;SDS011;50327;51.328;12.324;2023-09-19T09:15:08;14.07;;;2.10;;
64075;SDS011;50327;51.328;12.324;2023-09-19T09:17:36;3.88;;;1.27;;
64075;SDS011;50327;51.328;12.324;2023-09-19T09:20:02;12.57;;;1.42;;
64075;SDS011;50327;51.328;12.324;2023-09-19T09:22:28;11.90;;;1.40;;
64075;SDS011;50327;51.328;12.324;2023-09-19T09:24:54;10.80;;;1.25;;
64075;SDS011;50327;51.328;12.324;2023-09-19T09:27:23;7.35;;;1.70;;
64075;SDS011;50327;51.328;12.324;2023-09-19T09:29:49;6.53;;;1.48;;
64075;SDS011;50327;51.328;12.324;2023-09-19T09:32:19;4.22;;;1.23;;
64075;SDS011;50327;51.328;12.324;2023-09-19T09:34:45;4.55;;;1.40;;
64075;SDS011;50327;51.328;12.324;2023-09-19T09:37:17;5.80;;;1.40;;
64075;SDS011;50327;51.328;12.324;2023-09-19T09:39:51;4.97;;;1.40;;
64075;SDS011;50327;51.328;12.324;2023-09-19T09:47:44;5.70;;;1.50;;
64075;SDS011;50327;51.328;12.324;2023-09-19T09:52:57;5.80;;;1.25;;
64075;SDS011;50327;51.328;12.324;2023-09-19T09:58:16;7.63;;;2.10;;
64075;SDS011;50327;51.328;12.324;2023-09-19T10:00:53;4.50;;;1.70;;
64075;SDS011;50327;51.328;12.324;2023-09-19T10:03:30;9.85;;;1.58;;
64075;SDS011;50327;51.328;12.324;2023-09-19T10:05:56;6.07;;;1.25;;
64075;SDS011;50327;51.328;12.324;2023-09-19T10:08:23;12.05;;;2.00;;
64075;SDS011;50327;51.328;12.324;2023-09-19T10:10:48;4.68;;;1.13;;
64075;SDS011;50327;51.328;12.324;2023-09-19T10:13:28;5.38;;;1.42;;
64075;SDS011;50327;51.328;12.324;2023-09-19T10:15:55;8.65;;;1.70;;
64075;SDS011;50327;51.328;12.324;2023-09-19T10:20:48;10.40;;;1.63;;
64075;SDS011;50327;51.328;12.324;2023-09-19T10:23:14;8.05;;;1.58;;
64075;SDS011;50327;51.328;12.324;2023-09-19T10:25:47;6.80;;;1.48;;
64075;SDS011;50327;51.328;12.324;2023-09-19T10:28:13;7.85;;;1.48;;
64075;SDS011;50327;51.328;12.324;2023-09-19T10:30:45;4.65;;;1.33;;
64075;SDS011;50327;51.328;12.324;2023-09-19T10:33:16;6.07;;;1.40;;
64075;SDS011;50327;51.328;12.324;2023-09-19T10:35:42;5.97;;;1.50;;
64075;SDS011;50327;51.328;12.324;2023-09-19T10:38:09;9.45;;;1.98;;
64075;SDS011;50327;51.328;12.324;2023-09-19T10:40:35;6.97;;;1.52;;
64075;SDS011;50327;51.328;12.324;2023-09-19T10:43:05;6.35;;;2.08;;
64075;SDS011;50327;51.328;12.324;2023-09-19T10:45:31;8.68;;;1.73;;
64075;SDS011;50327;51.328;12.324;2023-09-19T10:47:57;5.88;;;1.65;;
64075;SDS011;50327;51.328;12.324;2023-09-19T10:50:22;7.15;;;1.35;;
64075;SDS011;50327;51.328;12.324;2023-09-19T10:52:48;5.97;;;1.55;;
64075;SDS011;50327;51.328;12.324;2023-09-19T10:55:23;8.30;;;1.90;;
64075;SDS011;50327;51.328;12.324;2023-09-19T10:57:49;7.00;;;1.60;;
64075;SDS011;50327;51.328;12.324;2023-09-19T11:00:14;9.23;;;1.52;;
64075;SDS011;50327;51.328;12.324;2023-09-19T11:06:02;8.43;;;1.73;;
64075;SDS011;50327;51.328;12.324;2023-09-19T11:08:29;7.18;;;1.58;;
64075;SDS011;50327;51.328;12.324;2023-09-19T11:10:55;3.97;;;1.20;;
64075;SDS011;50327;51.328;12.324;2023-09-19T11:13:29;4.55;;;1.38;;
64075;SDS011;50327;51.328;12.324;2023-09-19T11:26:40;5.93;;;1.50;;
64075;SDS011;50327;51.328;12.324;2023-09-19T11:29:24;7.72;;;1.98;;
64075;SDS011;50327;51.328;12.324;2023-09-19T11:31:50;7.53;;;1.65;;
64075;SDS011;50327;51.328;12.324;2023-09-19T11:37:00;7.18;;;1.58;;
64075;SDS011;50327;51.328;12.324;2023-09-19T11:39:26;6.00;;;1.33;;
64075;SDS011;50327;51.328;12.324;2023-09-19T11:41:52;7.95;;;1.70;;
64075;SDS011;50327;51.328;12.324;2023-09-19T11:44:31;5.80;;;1.60;;
64075;SDS011;50327;51.328;12.324;2023-09-19T11:46:56;8.27;;;1.60;;
64075;SDS011;50327;51.328;12.324;2023-09-19T11:49:27;10.23;;;1.70;;
64075;SDS011;50327;51.328;12.324;2023-09-19T11:51:55;4.25;;;1.40;;
64075;SDS011;50327;51.328;12.324;2023-09-19T11:54:20;5.05;;;1.80;;
64075;SDS011;50327;51.328;12.324;2023-09-19T11:56:49;4.53;;;1.30;;
64075;SDS011;50327;51.328;12.324;2023-09-19T11:59:31;7.20;;;1.40;;
64075;SDS011;50327;51.328;12.324;2023-09-19T12:01:59;8.05;;;1.35;;
64075;SDS011;50327;51.328;12.324;2023-09-19T12:04:34;9.32;;;1.83;;
64075;SDS011;50327;51.328;12.324;2023-09-19T12:07:02;10.00;;;1.60;;
64075;SDS011;50327;51.328;12.324;2023-09-19T12:09:27;9.43;;;1.73;;
64075;SDS011;50327;51.328;12.324;2023-09-19T12:11:53;8.50;;;1.83;;
64075;SDS011;50327;51.328;12.324;2023-09-19T12:14:22;7.82;;;1.95;;
64075;SDS011;50327;51.328;12.324;2023-09-19T12:16:54;4.03;;;1.60;;
64075;SDS011;50327;51.328;12.324;2023-09-19T12:19:21;7.13;;;2.92;;
64075;SDS011;50327;51.328;12.324;2023-09-19T12:22:08;9.00;;;1.70;;
64075;SDS011;50327;51.328;12.324;2023-09-19T12:24:34;5.55;;;1.50;;
64075;SDS011;50327;51.328;12.324;2023-09-19T12:27:04;10.32;;;1.83;;
64075;SDS011;50327;51.328;12.324;2023-09-19T12:29:30;8.15;;;2.13;;
64075;SDS011;50327;51.328;12.324;2023-09-19T12:31:57;8.75;;;1.52;;
64075;SDS011;50327;51.328;12.324;2023-09-19T12:34:23;4.20;;;1.50;;
64075;SDS011;50327;51.328;12.324;2023-09-19T12:37:02;6.20;;;1.80;;
64075;SDS011;50327;51.328;12.324;2023-09-19T12:39:28;14.05;;;1.92;;
64075;SDS011;50327;51.328;12.324;2023-09-19T12:41:54;11.55;;;2.10;;
64075;SDS011;50327;51.328;12.324;2023-09-19T12:44:20;5.78;;;1.98;;
64075;SDS011;50327;51.328;12.324;2023-09-19T12:46:45;5.60;;;1.88;;
64075;SDS011;50327;51.328;12.324;2023-09-19T12:51:47;6.28;;;2.17;;
64075;SDS011;50327;51.328;12.324;2023-09-19T12:54:12;5.25;;;1.92;;
64075;SDS011;50327;51.328;12.324;2023-09-19T12:56:40;4.32;;;1.70;;
64075;SDS011;50327;51.328;12.324;2023-09-19T12:59:09;9.88;;;1.92;;
64075;SDS011;50327;51.328;12.324;2023-09-19T13:01:38;6.53;;;2.05;;
64075;SDS011;50327;51.328;12.324;2023-09-19T13:06:37;6.47;;;2.10;;
64075;SDS011;50327;51.328;12.324;2023-09-19T13:09:08;8.65;;;3.60;;
64075;SDS011;50327;51.328;12.324;2023-09-19T13:11:37;5.78;;;1.83;;
64075;SDS011;50327;51.328;12.324;2023-09-19T13:22:05;8.07;;;2.17;;
64075;SDS011;50327;51.328;12.324;2023-09-19T13:24:33;5.28;;;1.92;;
64075;SDS011;50327;51.328;12.324;2023-09-19T13:27:00;9.10;;;2.17;;
64075;SDS011;50327;51.328;12.324;2023-09-19T13:29:25;5.72;;;1.85;;
64075;SDS011;50327;51.328;12.324;2023-09-19T13:31:51;3.88;;;2.03;;
64075;SDS011;50327;51.328;12.324;2023-09-19T13:34:18;17.65;;;2.20;;
64075;SDS011;50327;51.328;12.324;2023-09-19T13:36:44;5.90;;;2.05;;
64075;SDS011;50327;51.328;12.324;2023-09-19T13:39:09;10.85;;;2.17;;
64075;SDS011;50327;51.328;12.324;2023-09-19T13:41:37;7.00;;;2.47;;
64075;SDS011;50327;51.328;12.324;2023-09-19T13:44:03;5.70;;;2.35;;
64075;SDS011;50327;51.328;12.324;2023-09-19T13:46:29;5.57;;;2.08;;
64075;SDS011;50327;51.328;12.324;2023-09-19T13:48:56;4.75;;;1.90;;
64075;SDS011;50327;51.328;12.324;2023-09-19T13:51:25;5.65;;;2.22;;
64075;SDS011;50327;51.328;12.324;2023-09-19T13:53:50;6.18;;;2.72;;
64075;SDS011;50327;51.328;12.324;2023-09-19T13:56:16;4.87;;;2.17;;
64075;SDS011;50327;51.328;12.324;2023-09-19T13:58:41;5.95;;;2.35;;
64075;SDS011;50327;51.328;12.324;2023-09-19T14:01:07;9.27;;;2.05;;
64075;SDS011;50327;51.328;12.324;2023-09-19T14:03:37;8.00;;;2.10;;
64075;SDS011;50327;51.328;12.324;2023-09-19T14:06:02;9.57;;;2.28;;
64075;SDS011;50327;51.328;12.324;2023-09-19T14:08:27;7.05;;;2.17;;
64075;SDS011;50327;51.328;12.324;2023-09-19T14:10:53;6.32;;;2.15;;
64075;SDS011;50327;51.328;12.324;2023-09-19T14:13:18;10.90;;;2.33;;
64075;SDS011;50327;51.328;12.324;2023-09-19T14:15:45;5.97;;;2.65;;
64075;SDS011;50327;51.328;12.324;2023-09-19T14:18:10;10.45;;;2.58;;
64075;SDS011;50327;51.328;12.324;2023-09-19T14:20:37;4.43;;;2.22;;
64075;SDS011;50327;51.328;12.324;2023-09-19T14:23:03;9.75;;;2.60;;
64075;SDS011;50327;51.328;12.324;2023-09-19T14:25:28;6.50;;;2.70;;
64075;SDS011;50327;51.328;12.324;2023-09-19T14:27:55;6.75;;;2.28;;
64075;SDS011;50327;51.328;12.324;2023-09-19T14:30:20;12.68;;;3.05;;
64075;SDS011;50327;51.328;12.324;2023-09-19T14:32:46;5.53;;;2.08;;
64075;SDS011;50327;51.328;12.324;2023-09-19T14:35:11;7.68;;;2.35;;
64075;SDS011;50327;51.328;12.324;2023-09-19T14:37:38;4.18;;;1.65;;
64075;SDS011;50327;51.328;12.324;2023-09-19T14:40:04;8.82;;;2.70;;
64075;SDS011;50327;51.328;12.324;2023-09-19T14:42:34;5.45;;;2.25;;
64075;SDS011;50327;51.328;12.324;2023-09-19T14:45:01;19.65;;;3.33;;
64075;SDS011;50327;51.328;12.324;2023-09-19T14:47:26;5.90;;;2.42;;
64075;SDS011;50327;51.328;12.324;2023-09-19T14:49:52;7.85;;;2.40;;
64075;SDS011;50327;51.328;12.324;2023-09-19T14:52:18;10.05;;;2.65;;
64075;SDS011;50327;51.328;12.324;2023-09-19T14:54:43;10.65;;;2.47;;
64075;SDS011;50327;51.328;12.324;2023-09-19T14:57:09;6.20;;;2.35;;
64075;SDS011;50327;51.328;12.324;2023-09-19T14:59:35;7.03;;;2.42;;
64075;SDS011;50327;51.328;12.324;2023-09-19T15:02:03;9.30;;;2.55;;
64075;SDS011;50327;51.328;12.324;2023-09-19T15:04:29;10.70;;;2.38;;
64075;SDS011;50327;51.328;12.324;2023-09-19T15:06:54;7.18;;;2.50;;
64075;SDS011;50327;51.328;12.324;2023-09-19T15:09:20;5.80;;;2.33;;
64075;SDS011;50327;51.328;12.324;2023-09-19T15:11:47;7.63;;;2.47;;
64075;SDS011;50327;51.328;12.324;2023-09-19T15:14:12;8.25;;;3.42;;
64075;SDS011;50327;51.328;12.324;2023-09-19T15:16:37;8.00;;;2.37;;
64075;SDS011;50327;51.328;12.324;2023-09-19T15:19:03;9.98;;;2.83;;
64075;SDS011;50327;51.328;12.324;2023-09-19T15:21:28;12.05;;;2.58;;
64075;SDS011;50327;51.328;12.324;2023-09-19T15:23:53;5.47;;;2.40;;
64075;SDS011;50327;51.328;12.324;2023-09-19T15:26:19;6.47;;;2.72;;
64075;SDS011;50327;51.328;12.324;2023-09-19T15:28:46;10.63;;;2.33;;
64075;SDS011;50327;51.328;12.324;2023-09-19T15:31:12;11.77;;;2.53;;
64075;SDS011;50327;51.328;12.324;2023-09-19T15:33:38;7.00;;;2.30;;
64075;SDS011;50327;51.328;12.324;2023-09-19T15:36:07;8.43;;;2.30;;
64075;SDS011;50327;51.328;12.324;2023-09-19T15:41:18;12.77;;;3.88;;
64075;SDS011;50327;51.328;12.324;2023-09-19T15:43:43;5.55;;;2.33;;
64075;SDS011;50327;51.328;12.324;2023-09-19T15:46:09;6.57;;;2.30;;
64075;SDS011;50327;51.328;12.324;2023-09-19T15:48:34;6.10;;;2.50;;
64075;SDS011;50327;51.328;12.324;2023-09-19T15:51:02;6.80;;;2.25;;
64075;SDS011;50327;51.328;12.324;2023-09-19T15:53:28;9.07;;;2.13;;
64075;SDS011;50327;51.328;12.324;2023-09-19T15:55:55;6.80;;;2.17;;
64075;SDS011;50327;51.328;12.324;2023-09-19T15:58:20;9.02;;;2.38;;